createdAt,value
2023-01-09T00:00:09.968Z,15.93
2023-01-09T00:02:40.630Z,15.99
2023-01-09T00:05:08.280Z,15.95
2023-01-09T00:07:34.894Z,15.96
2023-01-09T00:10:01.426Z,15.90
2023-01-09T00:12:28.058Z,15.93
2023-01-09T00:14:54.577Z,15.91
2023-01-09T00:17:21.103Z,15.89
2023-01-09T00:19:47.680Z,15.92
2023-01-09T00:22:14.220Z,15.92
2023-01-09T00:24:40.746Z,15.94
2023-01-09T00:27:07.355Z,15.97
2023-01-09T00:29:33.924Z,15.93
2023-01-09T00:32:00.532Z,15.87
2023-01-09T00:34:27.222Z,15.83
2023-01-09T00:36:56.189Z,15.93
2023-01-09T00:39:23.303Z,15.88
2023-01-09T00:41:52.236Z,15.88
2023-01-09T00:44:49.710Z,15.89
2023-01-09T00:47:25.710Z,15.89
2023-01-09T00:49:53.246Z,15.88
2023-01-09T00:52:19.878Z,15.87
2023-01-09T00:54:46.511Z,15.83
2023-01-09T00:57:14.171Z,15.84
2023-01-09T00:59:41.532Z,15.87
2023-01-09T01:02:08.555Z,15.96
2023-01-09T01:04:54.156Z,15.92
2023-01-09T01:07:38.539Z,15.92
2023-01-09T01:10:17.111Z,15.83
2023-01-09T01:12:44.250Z,15.88
2023-01-09T01:15:11.421Z,15.83
2023-01-09T01:17:39.096Z,15.85
2023-01-09T01:20:07.397Z,15.84
2023-01-09T01:22:33.961Z,15.83
2023-01-09T01:25:00.520Z,15.84
2023-01-09T01:27:28.214Z,15.85
2023-01-09T01:29:55.056Z,15.82
2023-01-09T01:32:21.611Z,15.81
2023-01-09T01:34:48.129Z,15.82
2023-01-09T01:37:14.726Z,15.83
2023-01-09T01:39:41.540Z,15.83
2023-01-09T01:42:08.079Z,15.80
2023-01-09T01:44:57.859Z,15.79
2023-01-09T01:47:33.171Z,15.78
2023-01-09T01:50:01.993Z,15.84
2023-01-09T01:52:30.155Z,15.79
2023-01-09T01:54:56.721Z,15.82
2023-01-09T01:57:23.467Z,15.80
2023-01-09T01:59:53.898Z,15.82
2023-01-09T02:02:23.748Z,15.75
2023-01-09T02:04:52.369Z,15.76
2023-01-09T02:07:18.949Z,15.78
2023-01-09T02:09:46.222Z,15.73
2023-01-09T02:12:24.370Z,15.73
2023-01-09T02:14:58.286Z,15.74
2023-01-09T02:17:36.992Z,15.73
2023-01-09T02:20:22.058Z,15.74
2023-01-09T02:23:16.208Z,15.73
2023-01-09T02:25:57.772Z,15.68
2023-01-09T02:28:51.787Z,15.67
2023-01-09T02:31:37.795Z,15.73
2023-01-09T02:34:35.243Z,15.71
2023-01-09T02:37:05.516Z,15.63
2023-01-09T02:39:38.175Z,15.66
2023-01-09T02:42:07.615Z,15.65
2023-01-09T02:44:36.834Z,15.70
2023-01-09T02:47:17.479Z,15.68
2023-01-09T02:49:46.017Z,15.67
2023-01-09T02:52:45.314Z,15.72
2023-01-09T02:55:22.633Z,15.66
2023-01-09T02:58:34.476Z,15.74
2023-01-09T03:01:06.656Z,15.68
2023-01-09T03:04:06.878Z,15.71
2023-01-09T03:06:42.900Z,15.68
2023-01-09T03:09:15.396Z,15.69
2023-01-09T03:11:49.935Z,15.62
2023-01-09T03:14:18.037Z,15.66
2023-01-09T03:16:47.106Z,15.66
2023-01-09T03:19:18.603Z,15.62
2023-01-09T03:21:45.382Z,15.59
2023-01-09T03:24:12.223Z,15.58
2023-01-09T03:26:38.818Z,15.65
2023-01-09T03:29:05.426Z,15.66
2023-01-09T03:31:32.136Z,15.62
2023-01-09T03:33:58.667Z,15.62
2023-01-09T03:36:25.505Z,15.59
2023-01-09T03:38:52.022Z,15.52
2023-01-09T03:41:19.714Z,15.59
2023-01-09T03:43:47.897Z,15.59
2023-01-09T03:46:16.087Z,15.56
2023-01-09T03:48:42.861Z,15.60
2023-01-09T03:51:09.601Z,15.56
2023-01-09T03:53:36.236Z,15.54
2023-01-09T03:56:02.763Z,15.58
2023-01-09T03:58:29.290Z,15.57
2023-01-09T04:01:03.744Z,15.56
2023-01-09T04:03:30.465Z,15.54
2023-01-09T04:05:57.114Z,15.57
2023-01-09T04:08:23.677Z,15.56
2023-01-09T04:10:50.891Z,15.56
2023-01-09T04:13:17.954Z,15.50
2023-01-09T04:15:44.505Z,15.51
2023-01-09T04:18:11.129Z,15.47
2023-01-09T04:20:37.717Z,15.49
2023-01-09T04:23:04.301Z,15.49
2023-01-09T04:25:30.834Z,15.49
2023-01-09T04:27:57.414Z,15.50
2023-01-09T04:30:24.006Z,15.45
2023-01-09T04:32:52.012Z,15.44
2023-01-09T04:35:19.085Z,15.49
2023-01-09T04:37:45.621Z,15.47
2023-01-09T04:40:12.594Z,15.47
2023-01-09T04:42:39.915Z,15.43
2023-01-09T04:45:07.624Z,15.47
2023-01-09T04:47:34.221Z,15.42
2023-01-09T04:50:00.988Z,15.38
2023-01-09T04:52:28.660Z,15.34
2023-01-09T04:54:55.249Z,15.40
2023-01-09T04:57:22.341Z,15.41
2023-01-09T04:59:48.864Z,15.46
2023-01-09T05:02:15.444Z,15.42
2023-01-09T05:04:42.083Z,15.39
2023-01-09T05:07:08.724Z,15.38
2023-01-09T05:09:36.107Z,15.35
2023-01-09T05:12:02.972Z,15.27
2023-01-09T05:14:29.520Z,15.33
2023-01-09T05:16:56.266Z,15.30
2023-01-09T05:19:23.684Z,15.30
2023-01-09T05:21:50.277Z,15.36
2023-01-09T05:24:16.800Z,15.30
2023-01-09T05:26:43.354Z,15.32
2023-01-09T05:29:10.511Z,15.24
2023-01-09T05:31:37.103Z,15.20
2023-01-09T05:34:03.668Z,15.24
2023-01-09T05:36:30.212Z,15.21
2023-01-09T05:38:57.922Z,15.24
2023-01-09T05:41:26.172Z,15.19
2023-01-09T05:43:52.711Z,15.24
2023-01-09T05:46:19.266Z,15.22
2023-01-09T05:48:45.871Z,15.16
2023-01-09T05:51:12.935Z,15.20
2023-01-09T05:53:39.544Z,15.18
2023-01-09T05:56:06.355Z,15.17
2023-01-09T05:58:32.889Z,15.18
2023-01-09T06:00:59.521Z,15.20
2023-01-09T06:03:26.126Z,15.18
2023-01-09T06:05:52.673Z,15.15
2023-01-09T06:08:19.323Z,15.11
2023-01-09T06:10:46.508Z,15.13
2023-01-09T06:13:13.079Z,15.08
2023-01-09T06:15:39.638Z,15.13
2023-01-09T06:18:06.219Z,15.15
2023-01-09T06:20:32.779Z,15.08
2023-01-09T06:22:59.356Z,15.04
2023-01-09T06:25:26.056Z,15.04
2023-01-09T06:27:52.611Z,15.04
2023-01-09T06:30:19.879Z,15.02
2023-01-09T06:32:49.257Z,15.06
2023-01-09T06:35:20.871Z,15.05
2023-01-09T06:37:48.401Z,15.06
2023-01-09T06:40:15.715Z,15.06
2023-01-09T06:42:48.486Z,15.02
2023-01-09T06:45:15.646Z,15.08
2023-01-09T06:47:42.314Z,15.05
2023-01-09T06:50:09.547Z,15.04
2023-01-09T06:52:36.803Z,14.98
2023-01-09T06:55:04.079Z,15.00
2023-01-09T06:57:30.727Z,15.03
2023-01-09T06:59:57.881Z,15.09
2023-01-09T07:02:25.034Z,14.99
2023-01-09T07:04:51.600Z,14.96
2023-01-09T07:07:19.696Z,15.00
2023-01-09T07:09:46.422Z,15.04
2023-01-09T07:12:13.054Z,15.01
2023-01-09T07:14:39.697Z,14.94
2023-01-09T07:17:06.780Z,14.96
2023-01-09T07:19:33.312Z,14.98
2023-01-09T07:21:59.876Z,14.99
2023-01-09T07:24:26.450Z,15.15
2023-01-09T07:26:53.048Z,15.32
2023-01-09T07:29:19.676Z,15.53
2023-01-09T07:31:47.203Z,15.62
2023-01-09T07:34:13.850Z,15.70
2023-01-09T07:36:40.409Z,15.72
2023-01-09T07:39:06.973Z,15.80
2023-01-09T07:41:33.513Z,15.92
2023-01-09T07:44:00.115Z,15.94
2023-01-09T07:46:28.368Z,16.01
2023-01-09T07:48:54.912Z,16.02
2023-01-09T07:51:21.805Z,16.03
2023-01-09T07:53:48.338Z,16.07
2023-01-09T07:56:14.891Z,16.01
2023-01-09T07:58:41.501Z,16.06
2023-01-09T08:01:08.075Z,16.05
2023-01-09T08:03:34.938Z,16.03
2023-01-09T08:06:01.527Z,16.07
2023-01-09T08:08:28.063Z,16.07
2023-01-09T08:10:54.597Z,16.05
2023-01-09T08:13:21.213Z,16.08
2023-01-09T08:15:47.821Z,16.11
2023-01-09T08:18:14.433Z,15.98
2023-01-09T08:20:43.793Z,16.03
2023-01-09T08:23:10.383Z,16.06
2023-01-09T08:25:36.898Z,16.05
2023-01-09T08:28:03.492Z,16.02
2023-01-09T08:30:30.114Z,15.96
2023-01-09T08:32:56.643Z,15.87
2023-01-09T08:35:23.171Z,15.93
2023-01-09T08:37:49.729Z,16.00
2023-01-09T08:40:17.041Z,16.05
2023-01-09T08:43:02.201Z,16.10
2023-01-09T08:45:47.928Z,16.09
2023-01-09T08:48:14.715Z,16.08
2023-01-09T08:50:41.306Z,16.08
2023-01-09T08:53:07.875Z,16.10
2023-01-09T08:55:34.398Z,16.11
2023-01-09T08:58:01.323Z,16.15
2023-01-09T09:00:28.194Z,16.13
2023-01-09T09:02:56.573Z,16.17
2023-01-09T09:05:24.548Z,16.17
2023-01-09T09:07:53.868Z,16.16
2023-01-09T09:10:24.581Z,16.16
2023-01-09T09:12:52.683Z,16.22
2023-01-09T09:15:26.458Z,16.20
2023-01-09T09:17:54.614Z,16.15
2023-01-09T09:20:22.612Z,16.18
2023-01-09T09:22:49.208Z,16.19
2023-01-09T09:25:16.271Z,16.16
2023-01-09T09:27:43.264Z,16.19
2023-01-09T09:30:10.590Z,16.16
2023-01-09T09:32:38.354Z,16.14
2023-01-09T09:35:05.638Z,16.16
2023-01-09T09:37:32.513Z,16.15
2023-01-09T09:40:01.471Z,16.15
2023-01-09T09:43:00.822Z,16.19
2023-01-09T09:45:48.771Z,16.19
2023-01-09T09:48:36.171Z,16.23
2023-01-09T09:51:24.411Z,16.23
2023-01-09T09:53:59.878Z,16.23
2023-01-09T09:56:27.801Z,16.26
2023-01-09T09:59:01.520Z,16.22
2023-01-09T10:01:41.048Z,16.29
2023-01-09T10:04:15.664Z,16.31
2023-01-09T10:06:44.547Z,16.32
2023-01-09T10:09:41.471Z,16.30
2023-01-09T10:12:08.247Z,16.35
2023-01-09T10:14:34.769Z,16.36
2023-01-09T10:17:13.122Z,16.39
2023-01-09T10:20:02.772Z,16.37
2023-01-09T10:22:44.353Z,16.39
2023-01-09T10:25:13.955Z,16.39
2023-01-09T10:27:49.518Z,16.37
2023-01-09T10:30:31.137Z,16.38
2023-01-09T10:33:11.488Z,16.42
2023-01-09T10:36:06.282Z,16.45
2023-01-09T10:38:35.947Z,16.44
2023-01-09T10:41:24.031Z,16.43
2023-01-09T10:44:17.936Z,16.43
2023-01-09T10:46:55.491Z,16.45
2023-01-09T10:49:24.109Z,16.48
2023-01-09T10:51:52.545Z,16.46
2023-01-09T10:54:23.368Z,16.48
2023-01-09T10:56:58.514Z,16.46
2023-01-09T10:59:25.249Z,16.53
2023-01-09T11:01:52.157Z,16.57
2023-01-09T11:04:37.352Z,16.55
2023-01-09T11:07:19.040Z,16.56
2023-01-09T11:09:56.875Z,16.59
2023-01-09T11:12:26.039Z,16.57
2023-01-09T11:14:52.611Z,16.50
2023-01-09T11:17:21.309Z,16.52
2023-01-09T11:20:15.414Z,16.52
2023-01-09T11:22:43.401Z,16.55
2023-01-09T11:25:18.120Z,16.54
2023-01-09T11:28:06.630Z,16.53
2023-01-09T11:30:37.426Z,16.54
2023-01-09T11:33:15.243Z,16.51
2023-01-09T11:35:51.482Z,16.50
2023-01-09T11:38:18.364Z,16.51
2023-01-09T11:40:54.368Z,16.51
2023-01-09T11:43:22.627Z,16.51
2023-01-09T11:46:00.669Z,16.51
2023-01-09T11:48:37.455Z,16.47
2023-01-09T11:51:21.779Z,16.53
2023-01-09T11:54:10.135Z,16.46
2023-01-09T11:56:37.474Z,16.49
2023-01-09T11:59:15.214Z,16.48
2023-01-09T12:01:59.953Z,16.48
2023-01-09T12:04:44.217Z,16.50
2023-01-09T12:07:36.078Z,16.47
2023-01-09T12:10:24.427Z,16.48
2023-01-09T12:13:03.154Z,16.46
2023-01-09T12:15:33.657Z,16.44
2023-01-09T12:18:12.417Z,16.45
2023-01-09T12:20:57.479Z,16.45
2023-01-09T12:23:48.933Z,16.44
2023-01-09T12:26:17.276Z,16.44
2023-01-09T12:28:43.764Z,16.43
2023-01-09T12:34:20.773Z,16.42
2023-01-09T12:37:06.975Z,16.41
2023-01-09T12:39:44.524Z,16.37
2023-01-09T12:42:24.098Z,16.41
2023-01-09T12:45:00.260Z,16.36
2023-01-09T12:47:46.579Z,16.36
2023-01-09T12:50:22.231Z,16.39
2023-01-09T12:52:57.559Z,16.38
2023-01-09T12:55:25.665Z,16.38
2023-01-09T12:57:56.115Z,16.36
2023-01-09T13:00:25.863Z,16.34
2023-01-09T13:03:12.948Z,16.30
2023-01-09T13:05:49.365Z,16.31
2023-01-09T13:08:34.701Z,16.35
2023-01-09T13:11:20.605Z,16.37
2023-01-09T13:13:53.368Z,16.28
2023-01-09T13:16:33.542Z,16.29
2023-01-09T13:19:31.467Z,16.30
2023-01-09T13:21:58.658Z,16.25
2023-01-09T13:24:31.120Z,16.30
2023-01-09T13:27:01.191Z,16.31
2023-01-09T13:29:34.545Z,16.34
2023-01-09T13:32:23.986Z,16.32
2023-01-09T13:34:52.738Z,16.35
2023-01-09T13:37:30.609Z,16.28
2023-01-09T13:40:21.980Z,16.25
2023-01-09T13:43:10.920Z,16.29
2023-01-09T13:45:38.502Z,16.23
2023-01-09T13:48:11.231Z,16.29
2023-01-09T13:50:38.499Z,16.24
2023-01-09T13:53:20.276Z,16.23
2023-01-09T13:55:59.368Z,16.28
2023-01-09T13:58:27.307Z,16.20
2023-01-09T14:00:59.797Z,16.19
2023-01-09T14:03:35.191Z,16.21
2023-01-09T14:06:02.354Z,16.24
2023-01-09T14:08:30.316Z,16.20
2023-01-09T14:11:01.645Z,16.21
2023-01-09T14:13:31.341Z,16.25
2023-01-09T14:16:20.421Z,16.25
2023-01-09T14:19:05.252Z,16.23
2023-01-09T14:21:47.238Z,16.32
2023-01-09T14:24:21.202Z,16.25
2023-01-09T14:26:56.717Z,16.26
2023-01-09T14:29:36.209Z,16.25
2023-01-09T14:32:21.178Z,16.22
2023-01-09T14:35:11.717Z,16.27
2023-01-09T14:37:40.703Z,16.25
2023-01-09T14:40:15.405Z,16.19
2023-01-09T14:42:42.178Z,16.17
2023-01-09T14:45:19.368Z,16.17
2023-01-09T14:48:00.895Z,16.15
2023-01-09T14:50:34.430Z,16.16
2023-01-09T14:53:05.611Z,16.19
2023-01-09T14:56:01.790Z,16.18
2023-01-09T14:58:30.548Z,16.17
2023-01-09T15:01:03.245Z,16.13
2023-01-09T15:03:33.200Z,16.11
2023-01-09T15:06:00.486Z,16.11
2023-01-09T15:08:27.861Z,16.11
2023-01-09T15:10:56.067Z,16.11
2023-01-09T15:13:44.083Z,16.12
2023-01-09T15:16:19.398Z,16.11
2023-01-09T15:18:48.490Z,16.10
2023-01-09T15:21:18.603Z,16.08
2023-01-09T15:23:45.163Z,16.07
2023-01-09T15:26:29.435Z,16.11
2023-01-09T15:29:23.095Z,16.09
2023-01-09T15:32:12.589Z,16.09
2023-01-09T15:34:39.416Z,16.08
2023-01-09T15:37:26.144Z,16.06
2023-01-09T15:39:52.944Z,16.05
2023-01-09T15:42:49.965Z,16.05
2023-01-09T15:45:38.965Z,16.04
2023-01-09T15:48:32.885Z,15.96
2023-01-09T15:51:13.367Z,15.99
2023-01-09T15:53:41.050Z,15.98
2023-01-09T15:56:17.169Z,15.97
2023-01-09T15:58:48.918Z,15.92
2023-01-09T16:01:32.254Z,15.97
2023-01-09T16:04:10.946Z,15.94
2023-01-09T16:06:45.263Z,15.98
2023-01-09T16:09:18.319Z,15.92
2023-01-09T16:11:52.735Z,15.93
2023-01-09T16:14:24.960Z,15.95
2023-01-09T16:16:52.391Z,15.90
2023-01-09T16:19:58.171Z,15.92
2023-01-09T16:22:27.225Z,15.93
2023-01-09T16:24:55.727Z,15.92
2023-01-09T16:27:24.218Z,15.88
2023-01-09T16:29:57.554Z,15.86
2023-01-09T16:32:36.627Z,15.86
2023-01-09T16:35:08.023Z,15.89
2023-01-09T16:37:35.971Z,15.87
2023-01-09T16:40:05.295Z,15.89
2023-01-09T16:42:53.771Z,15.84
2023-01-09T16:45:21.018Z,15.83
2023-01-09T16:47:47.558Z,15.82
2023-01-09T16:50:14.135Z,15.83
2023-01-09T16:52:40.714Z,15.84
2023-01-09T16:55:07.551Z,15.85
2023-01-09T16:57:34.896Z,15.81
2023-01-09T17:00:01.874Z,15.79
2023-01-09T17:02:28.435Z,15.80
2023-01-09T17:04:59.419Z,15.76
2023-01-09T17:07:25.973Z,15.82
2023-01-09T17:09:53.334Z,15.80
2023-01-09T17:12:22.074Z,15.71
2023-01-09T17:14:49.184Z,15.75
2023-01-09T17:17:16.813Z,15.75
2023-01-09T17:19:43.555Z,15.73
2023-01-09T17:22:10.083Z,15.73
2023-01-09T17:24:54.907Z,15.71
2023-01-09T17:27:54.934Z,15.73
2023-01-09T17:30:21.717Z,15.75
2023-01-09T17:32:48.786Z,15.76
2023-01-09T17:35:16.152Z,15.79
2023-01-09T17:37:43.179Z,15.75
2023-01-09T17:40:20.362Z,15.76
2023-01-09T17:42:46.934Z,15.71
2023-01-09T17:45:13.771Z,15.69
2023-01-09T17:47:40.325Z,15.69
2023-01-09T17:50:07.301Z,15.69
2023-01-09T17:52:33.890Z,15.72
2023-01-09T17:55:05.294Z,15.70
2023-01-09T17:57:32.726Z,15.67
2023-01-09T17:59:59.282Z,15.69
2023-01-09T18:02:25.891Z,15.71
2023-01-09T18:04:52.480Z,15.90
2023-01-09T18:07:19.567Z,16.03
2023-01-09T18:09:46.156Z,16.20
2023-01-09T18:12:12.783Z,16.35
2023-01-09T18:14:40.682Z,16.42
2023-01-09T18:17:07.463Z,16.38
2023-01-09T18:19:34.031Z,16.38
2023-01-09T18:22:00.665Z,16.43
2023-01-09T18:24:27.184Z,16.44
2023-01-09T18:26:54.360Z,16.44
2023-01-09T18:29:21.360Z,16.41
2023-01-09T18:31:48.274Z,16.40
2023-01-09T18:34:14.947Z,16.37
2023-01-09T18:36:41.518Z,16.41
2023-01-09T18:39:08.749Z,16.38
2023-01-09T18:41:35.309Z,16.40
2023-01-09T18:44:02.147Z,16.33
2023-01-09T18:46:32.032Z,16.34
2023-01-09T18:49:02.513Z,16.36
2023-01-09T18:51:30.037Z,16.37
2023-01-09T18:53:57.093Z,16.35
2023-01-09T18:56:24.759Z,16.30
2023-01-09T18:58:56.546Z,16.30
2023-01-09T19:01:23.232Z,16.22
2023-01-09T19:03:49.924Z,16.20
2023-01-09T19:06:16.477Z,16.19
2023-01-09T19:08:43.028Z,16.21
2023-01-09T19:11:09.621Z,16.20
2023-01-09T19:13:37.435Z,16.20
2023-01-09T19:16:05.560Z,16.15
2023-01-09T19:18:40.030Z,16.17
2023-01-09T19:21:10.896Z,16.18
2023-01-09T19:23:37.437Z,16.14
2023-01-09T19:26:06.085Z,16.09
2023-01-09T19:28:32.641Z,15.93
2023-01-09T19:30:59.173Z,16.00
2023-01-09T19:33:25.808Z,15.94
2023-01-09T19:35:52.911Z,15.98
2023-01-09T19:38:26.828Z,16.01
2023-01-09T19:40:53.377Z,15.95
2023-01-09T19:43:28.777Z,16.00
2023-01-09T19:45:56.205Z,15.85
2023-01-09T19:48:23.964Z,15.82
2023-01-09T19:50:50.818Z,15.88
2023-01-09T19:53:17.386Z,15.80
2023-01-09T19:55:43.910Z,15.81
2023-01-09T19:58:11.080Z,15.76
2023-01-09T20:00:37.643Z,15.71
2023-01-09T20:03:04.345Z,15.63
2023-01-09T20:05:30.928Z,15.55
2023-01-09T20:07:57.630Z,15.46
2023-01-09T20:10:24.217Z,15.48
2023-01-09T20:12:50.804Z,15.49
2023-01-09T20:15:17.341Z,15.51
2023-01-09T20:17:43.915Z,15.49
2023-01-09T20:20:10.918Z,15.44
2023-01-09T20:22:37.445Z,15.39
2023-01-09T20:25:04.214Z,15.47
2023-01-09T20:27:30.759Z,15.23
2023-01-09T20:29:57.303Z,15.38
2023-01-09T20:32:23.875Z,15.36
2023-01-09T20:34:50.440Z,15.39
2023-01-09T20:37:17.009Z,15.24
2023-01-09T20:39:43.661Z,15.17
2023-01-09T20:42:10.186Z,15.18
2023-01-09T20:44:36.777Z,15.15
2023-01-09T20:47:03.326Z,15.04
2023-01-09T20:49:29.907Z,15.04
2023-01-09T20:51:56.480Z,15.15
2023-01-09T20:54:23.124Z,15.03
2023-01-09T20:56:50.124Z,15.06
2023-01-09T20:59:20.332Z,15.06
2023-01-09T21:01:46.965Z,14.98
2023-01-09T21:04:13.595Z,15.11
2023-01-09T21:06:40.387Z,15.06
2023-01-09T21:09:07.007Z,14.98
2023-01-09T21:11:33.539Z,15.01
2023-01-09T21:14:00.145Z,14.92
2023-01-09T21:16:27.027Z,14.93
2023-01-09T21:18:54.275Z,14.90
2023-01-09T21:21:23.811Z,14.90
2023-01-09T21:23:52.612Z,14.88
2023-01-09T21:26:22.493Z,14.95
2023-01-09T21:28:50.244Z,15.00
2023-01-09T21:31:19.555Z,14.87
2023-01-09T21:33:48.326Z,14.93
2023-01-09T21:36:15.342Z,14.91
2023-01-09T21:38:41.877Z,14.87
2023-01-09T21:41:37.345Z,14.82
2023-01-09T21:44:22.535Z,14.90
2023-01-09T21:46:51.873Z,14.88
2023-01-09T21:49:20.146Z,14.91
2023-01-09T21:51:46.726Z,14.91
2023-01-09T21:54:13.289Z,15.00
2023-01-09T21:56:39.859Z,15.09
2023-01-09T21:59:06.620Z,15.11
2023-01-09T22:01:33.178Z,15.09
2023-01-09T22:03:59.736Z,15.05
2023-01-09T22:06:26.341Z,15.01
2023-01-09T22:08:52.962Z,14.95
2023-01-09T22:11:19.488Z,14.91
2023-01-09T22:13:49.870Z,14.94
2023-01-09T22:16:16.874Z,14.86
2023-01-09T22:18:43.466Z,14.95
2023-01-09T22:21:10.073Z,14.83
2023-01-09T22:23:36.709Z,14.82
2023-01-09T22:26:08.307Z,14.81
2023-01-09T22:28:34.878Z,14.72
2023-01-09T22:31:01.449Z,14.89
2023-01-09T22:33:27.990Z,14.80
2023-01-09T22:35:54.541Z,14.81
2023-01-09T22:38:21.066Z,14.78
2023-01-09T22:40:47.604Z,14.76
2023-01-09T22:43:16.353Z,14.81
2023-01-09T22:45:43.102Z,14.78
2023-01-09T22:48:09.977Z,14.86
2023-01-09T22:50:36.948Z,14.81
2023-01-09T22:53:03.676Z,14.80
2023-01-09T22:55:30.235Z,14.82
2023-01-09T22:57:56.781Z,14.80
2023-01-09T23:00:23.347Z,14.76
2023-01-09T23:02:49.977Z,14.78
2023-01-09T23:05:16.855Z,14.82
2023-01-09T23:07:43.435Z,14.78
2023-01-09T23:10:10.524Z,14.79
2023-01-09T23:12:37.072Z,14.73
2023-01-09T23:15:03.766Z,14.77
2023-01-09T23:17:30.317Z,14.78
2023-01-09T23:19:56.883Z,14.70
2023-01-09T23:22:23.406Z,14.72
2023-01-09T23:24:49.964Z,14.75
2023-01-09T23:27:16.560Z,14.69
2023-01-09T23:29:43.089Z,14.73
2023-01-09T23:32:09.662Z,14.74
2023-01-09T23:34:36.325Z,14.74
2023-01-09T23:37:05.881Z,14.69
2023-01-09T23:39:32.782Z,14.73
2023-01-09T23:42:17.657Z,14.76
2023-01-09T23:44:44.198Z,14.72
2023-01-09T23:47:10.757Z,14.79
2023-01-09T23:49:37.416Z,14.75
2023-01-09T23:52:06.033Z,14.72
2023-01-09T23:54:32.708Z,14.77
2023-01-09T23:56:59.234Z,14.75
2023-01-09T23:59:25.783Z,14.76
